Dangriga, Belize
Current Conditions -  °F | °C
As of 6:00 PM on Sunday 19 Oct 2014 (Local Time) from MZBZ Reporting Station
Broken Clouds Broken Clouds  
Wind Chill: 77°   Ceiling: 4500
Heat Index: 78°   Visibility: 6mi
Dew Point: 75°   Wind: 2mph
Humidity: 94%   Direction: 120°ESE
Pressure: 29.84"   Gusts: NA
Location:  16.97°N, 88.22°W
Report Text: MZBZ 200000Z 12002KT 9999 SCT018 BKN045 25/24 A2984 Q1010 NOSIG
Loading
Personal Weather Stations






























Interactive Weather Map
Tropical Storm Tracking
New forecast layout! Learn more

10-Day Weather Forecast

Advertisements
Track Severe Weather on mobile